sensor_id;sensor_type;location;lat;lon;timestamp;pressure;altitude;pressure_sealevel;temperature;humidity
81865;BME280;71313;43.514;1.500;2023-12-22T00:02:18;100851.28;;;14.67;67.06
81865;BME280;71313;43.514;1.500;2023-12-22T00:04:45;100827.06;;;14.66;67.06
81865;BME280;71313;43.514;1.500;2023-12-22T00:07:10;100835.19;;;14.66;66.74
81865;BME280;71313;43.514;1.500;2023-12-22T00:09:36;100832.38;;;14.67;67.40
81865;BME280;71313;43.514;1.500;2023-12-22T00:12:01;100836.91;;;14.67;67.00
81865;BME280;71313;43.514;1.500;2023-12-22T00:14:27;100829.66;;;14.67;66.62
81865;BME280;71313;43.514;1.500;2023-12-22T00:16:52;100845.97;;;14.66;66.90
81865;BME280;71313;43.514;1.500;2023-12-22T00:19:17;100814.44;;;14.66;66.89
81865;BME280;71313;43.514;1.500;2023-12-22T00:21:43;100819.94;;;14.65;66.49
81865;BME280;71313;43.514;1.500;2023-12-22T00:24:08;100818.97;;;14.66;67.14
81865;BME280;71313;43.514;1.500;2023-12-22T00:26:33;100839.59;;;14.67;66.63
81865;BME280;71313;43.514;1.500;2023-12-22T00:28:59;100845.97;;;14.66;67.34
81865;BME280;71313;43.514;1.500;2023-12-22T00:31:24;100832.47;;;14.66;66.28
81865;BME280;71313;43.514;1.500;2023-12-22T00:33:49;100833.34;;;14.66;66.24
81865;BME280;71313;43.514;1.500;2023-12-22T00:36:15;100832.38;;;14.67;67.05
81865;BME280;71313;43.514;1.500;2023-12-22T00:38:43;100833.22;;;14.68;66.32
81865;BME280;71313;43.514;1.500;2023-12-22T00:41:10;100842.41;;;14.65;67.14
81865;BME280;71313;43.514;1.500;2023-12-22T00:43:35;100856.78;;;14.66;67.44
81865;BME280;71313;43.514;1.500;2023-12-22T00:46:01;100849.44;;;14.68;66.83
81865;BME280;71313;43.514;1.500;2023-12-22T00:48:27;100849.44;;;14.68;66.53
81865;BME280;71313;43.514;1.500;2023-12-22T00:50:52;100861.22;;;14.67;67.33
81865;BME280;71313;43.514;1.500;2023-12-22T00:53:17;100860.25;;;14.68;66.56
81865;BME280;71313;43.514;1.500;2023-12-22T00:55:43;100853.13;;;14.67;66.92
81865;BME280;71313;43.514;1.500;2023-12-22T00:58:08;100863.91;;;14.67;67.69
81865;BME280;71313;43.514;1.500;2023-12-22T01:00:33;100852.56;;;14.61;67.39
81865;BME280;71313;43.514;1.500;2023-12-22T01:02:59;100857.75;;;14.65;67.07
81865;BME280;71313;43.514;1.500;2023-12-22T01:05:24;100854.31;;;14.63;68.01
81865;BME280;71313;43.514;1.500;2023-12-22T01:07:50;100852.34;;;14.65;67.31
81865;BME280;71313;43.514;1.500;2023-12-22T01:10:15;100862.19;;;14.66;67.86
81865;BME280;71313;43.514;1.500;2023-12-22T01:12:40;100849.66;;;14.65;67.03
81865;BME280;71313;43.514;1.500;2023-12-22T01:15:06;100848.78;;;14.64;66.70
81865;BME280;71313;43.514;1.500;2023-12-22T01:17:32;100856.91;;;14.64;67.13
81865;BME280;71313;43.514;1.500;2023-12-22T01:19:57;100835.41;;;14.63;67.09
81865;BME280;71313;43.514;1.500;2023-12-22T01:22:22;100830.84;;;14.63;67.86
81865;BME280;71313;43.514;1.500;2023-12-22T01:24:48;100846.19;;;14.63;67.28
81865;BME280;71313;43.514;1.500;2023-12-22T01:27:14;100840.69;;;14.64;67.17
81865;BME280;71313;43.514;1.500;2023-12-22T01:29:39;100846.19;;;14.63;68.03
81865;BME280;71313;43.514;1.500;2023-12-22T01:32:05;100850.63;;;14.64;67.57
81865;BME280;71313;43.514;1.500;2023-12-22T01:34:30;100848.91;;;14.63;68.10
81865;BME280;71313;43.514;1.500;2023-12-22T01:36:55;100858.72;;;14.64;67.65
81865;BME280;71313;43.514;1.500;2023-12-22T01:39:21;100854.19;;;14.64;68.04
81865;BME280;71313;43.514;1.500;2023-12-22T01:41:47;100845.13;;;14.65;68.49
81865;BME280;71313;43.514;1.500;2023-12-22T01:44:12;100854.31;;;14.63;67.66
81865;BME280;71313;43.514;1.500;2023-12-22T01:46:38;100864.13;;;14.64;67.47
81865;BME280;71313;43.514;1.500;2023-12-22T01:49:05;100869.53;;;14.64;67.73
81865;BME280;71313;43.514;1.500;2023-12-22T01:51:33;100877.75;;;14.62;67.58
81865;BME280;71313;43.514;1.500;2023-12-22T01:54:00;100886.72;;;14.63;68.06
81865;BME280;71313;43.514;1.500;2023-12-22T01:56:25;100886.72;;;14.63;68.55
81865;BME280;71313;43.514;1.500;2023-12-22T01:58:55;100875.16;;;14.60;67.65
81865;BME280;71313;43.514;1.500;2023-12-22T02:01:23;100883.25;;;14.60;68.60
81865;BME280;71313;43.514;1.500;2023-12-22T02:03:50;100871.47;;;14.61;67.66
81865;BME280;71313;43.514;1.500;2023-12-22T02:06:17;100876.88;;;14.61;67.59
81865;BME280;71313;43.514;1.500;2023-12-22T02:08:46;100871.47;;;14.61;69.11
81865;BME280;71313;43.514;1.500;2023-12-22T02:11:12;100867.81;;;14.63;68.79
81865;BME280;71313;43.514;1.500;2023-12-22T02:13:38;100866.06;;;14.61;67.63
81865;BME280;71313;43.514;1.500;2023-12-22T02:16:14;100866.06;;;14.61;67.41
81865;BME280;71313;43.514;1.500;2023-12-22T02:18:43;100858.94;;;14.60;68.35
81865;BME280;71313;43.514;1.500;2023-12-22T02:21:12;100848.13;;;14.60;68.65
81865;BME280;71313;43.514;1.500;2023-12-22T02:23:37;100849.88;;;14.61;68.01
81865;BME280;71313;43.514;1.500;2023-12-22T02:26:09;100848.13;;;14.60;68.15
81865;BME280;71313;43.514;1.500;2023-12-22T02:28:35;100854.19;;;14.51;68.95
81865;BME280;71313;43.514;1.500;2023-12-22T02:33:38;100849.31;;;14.56;68.75
81865;BME280;71313;43.514;1.500;2023-12-22T02:36:07;100846.63;;;14.56;68.94
81865;BME280;71313;43.514;1.500;2023-12-22T02:38:34;100839.50;;;14.55;68.06
81865;BME280;71313;43.514;1.500;2023-12-22T02:41:00;100843.94;;;14.56;69.09
81865;BME280;71313;43.514;1.500;2023-12-22T02:43:25;100846.63;;;14.56;68.60
81865;BME280;71313;43.514;1.500;2023-12-22T02:45:51;100835.06;;;14.54;69.07
81865;BME280;71313;43.514;1.500;2023-12-22T02:48:16;100839.50;;;14.55;68.46
81865;BME280;71313;43.514;1.500;2023-12-22T02:50:42;100842.31;;;14.54;68.08
81865;BME280;71313;43.514;1.500;2023-12-22T02:53:07;100837.75;;;14.54;68.93
81865;BME280;71313;43.514;1.500;2023-12-22T02:55:33;100838.63;;;14.55;68.79
81865;BME280;71313;43.514;1.500;2023-12-22T02:57:59;100824.25;;;14.54;69.20
81865;BME280;71313;43.514;1.500;2023-12-22T03:00:24;100827.72;;;14.56;68.90
81865;BME280;71313;43.514;1.500;2023-12-22T03:02:50;100825.88;;;14.57;69.15
81865;BME280;71313;43.514;1.500;2023-12-22T03:05:15;100839.38;;;14.57;68.32
81865;BME280;71313;43.514;1.500;2023-12-22T03:07:40;100836.78;;;14.55;68.27
81865;BME280;71313;43.514;1.500;2023-12-22T03:10:06;100823.28;;;14.55;68.19
81865;BME280;71313;43.514;1.500;2023-12-22T03:12:32;100814.22;;;14.56;68.25
81865;BME280;71313;43.514;1.500;2023-12-22T03:14:57;100825.03;;;14.56;68.57
81865;BME280;71313;43.514;1.500;2023-12-22T03:17:22;100822.44;;;14.55;68.33
81865;BME280;71313;43.514;1.500;2023-12-22T03:19:48;100818.75;;;14.56;68.39
81865;BME280;71313;43.514;1.500;2023-12-22T03:22:16;100821.56;;;14.54;69.00
81865;BME280;71313;43.514;1.500;2023-12-22T03:24:41;100830.41;;;14.56;68.05
81865;BME280;71313;43.514;1.500;2023-12-22T03:27:07;100820.59;;;14.55;68.46
81865;BME280;71313;43.514;1.500;2023-12-22T03:29:32;100809.69;;;14.57;69.06
81865;BME280;71313;43.514;1.500;2023-12-22T03:31:59;100802.56;;;14.56;69.22
81865;BME280;71313;43.514;1.500;2023-12-22T03:34:24;100808.06;;;14.54;68.57
81865;BME280;71313;43.514;1.500;2023-12-22T03:36:50;100817.88;;;14.55;68.17
81865;BME280;71313;43.514;1.500;2023-12-22T03:39:16;100816.16;;;14.54;68.52
81865;BME280;71313;43.514;1.500;2023-12-22T03:41:41;100813.34;;;14.56;68.57
81865;BME280;71313;43.514;1.500;2023-12-22T03:44:06;100825.13;;;14.55;68.33
81865;BME280;71313;43.514;1.500;2023-12-22T03:46:32;100832.38;;;14.54;68.36
81865;BME280;71313;43.514;1.500;2023-12-22T03:48:57;100832.25;;;14.56;68.24
81865;BME280;71313;43.514;1.500;2023-12-22T03:51:23;100833.00;;;14.58;68.20
81865;BME280;71313;43.514;1.500;2023-12-22T03:53:49;100832.16;;;14.57;68.47
81865;BME280;71313;43.514;1.500;2023-12-22T03:56:14;100829.34;;;14.59;69.40
81865;BME280;71313;43.514;1.500;2023-12-22T03:58:40;100834.63;;;14.60;69.09
81865;BME280;71313;43.514;1.500;2023-12-22T04:01:05;100838.41;;;14.58;69.27
81865;BME280;71313;43.514;1.500;2023-12-22T04:03:34;100835.81;;;14.56;69.11
81865;BME280;71313;43.514;1.500;2023-12-22T04:06:03;100833.00;;;14.58;68.70
81865;BME280;71313;43.514;1.500;2023-12-22T04:08:29;100841.97;;;14.58;69.43
81865;BME280;71313;43.514;1.500;2023-12-22T04:10:54;100834.97;;;14.56;68.46
81865;BME280;71313;43.514;1.500;2023-12-22T04:13:22;100839.50;;;14.55;69.67
81865;BME280;71313;43.514;1.500;2023-12-22T04:15:47;100843.16;;;14.54;68.46
81865;BME280;71313;43.514;1.500;2023-12-22T04:18:13;100842.19;;;14.55;68.44
81865;BME280;71313;43.514;1.500;2023-12-22T04:20:38;100848.56;;;14.54;69.46
81865;BME280;71313;43.514;1.500;2023-12-22T04:23:04;100856.56;;;14.56;69.22
81865;BME280;71313;43.514;1.500;2023-12-22T04:25:30;100858.28;;;14.57;68.53
81865;BME280;71313;43.514;1.500;2023-12-22T04:27:55;100852.78;;;14.58;68.85
81865;BME280;71313;43.514;1.500;2023-12-22T04:30:20;100844.69;;;14.58;68.70
81865;BME280;71313;43.514;1.500;2023-12-22T04:32:47;100846.41;;;14.59;69.40
81865;BME280;71313;43.514;1.500;2023-12-22T04:35:12;100843.81;;;14.58;69.24
81865;BME280;71313;43.514;1.500;2023-12-22T04:37:38;100850.09;;;14.58;69.35
81865;BME280;71313;43.514;1.500;2023-12-22T04:40:03;100850.84;;;14.60;69.02
81865;BME280;71313;43.514;1.500;2023-12-22T04:42:29;100858.09;;;14.60;68.64
81865;BME280;71313;43.514;1.500;2023-12-22T04:44:55;100862.63;;;14.59;69.19
81865;BME280;71313;43.514;1.500;2023-12-22T04:47:20;100857.31;;;14.58;69.35
81865;BME280;71313;43.514;1.500;2023-12-22T04:49:46;100845.66;;;14.57;68.76
81865;BME280;71313;43.514;1.500;2023-12-22T04:52:11;100848.34;;;14.57;68.87
81865;BME280;71313;43.514;1.500;2023-12-22T04:54:37;100845.53;;;14.59;68.97
81865;BME280;71313;43.514;1.500;2023-12-22T04:57:03;100841.97;;;14.58;69.21
81865;BME280;71313;43.514;1.500;2023-12-22T04:59:29;100838.41;;;14.58;69.62
81865;BME280;71313;43.514;1.500;2023-12-22T05:01:54;100839.28;;;14.58;68.98
81865;BME280;71313;43.514;1.500;2023-12-22T05:04:20;100837.44;;;14.59;69.35
81865;BME280;71313;43.514;1.500;2023-12-22T05:06:46;100848.13;;;14.60;68.86
81865;BME280;71313;43.514;1.500;2023-12-22T05:09:11;100850.94;;;14.59;69.13
81865;BME280;71313;43.514;1.500;2023-12-22T05:11:37;100855.47;;;14.58;68.96
81865;BME280;71313;43.514;1.500;2023-12-22T05:14:03;100846.53;;;14.58;68.64
81865;BME280;71313;43.514;1.500;2023-12-22T05:16:28;100835.81;;;14.56;69.66
81865;BME280;71313;43.514;1.500;2023-12-22T05:18:56;100853.00;;;14.55;69.49
81865;BME280;71313;43.514;1.500;2023-12-22T05:21:23;100851.16;;;14.56;68.74
81865;BME280;71313;43.514;1.500;2023-12-22T05:23:48;100852.03;;;14.56;68.88
81865;BME280;71313;43.514;1.500;2023-12-22T05:26:21;100856.56;;;14.56;69.34
81865;BME280;71313;43.514;1.500;2023-12-22T05:28:47;100855.69;;;14.55;68.95
81865;BME280;71313;43.514;1.500;2023-12-22T05:31:14;100862.19;;;14.53;69.06
81865;BME280;71313;43.514;1.500;2023-12-22T05:33:39;100872.00;;;14.54;69.60
81865;BME280;71313;43.514;1.500;2023-12-22T05:36:05;100868.44;;;14.53;69.06
81865;BME280;71313;43.514;1.500;2023-12-22T05:38:30;100886.38;;;14.54;69.07
81865;BME280;71313;43.514;1.500;2023-12-22T05:40:56;100878.28;;;14.54;69.58
81865;BME280;71313;43.514;1.500;2023-12-22T05:43:21;100884.66;;;14.53;69.62
81865;BME280;71313;43.514;1.500;2023-12-22T05:45:47;100885.41;;;14.55;69.44
81865;BME280;71313;43.514;1.500;2023-12-22T05:48:12;100887.25;;;14.55;69.17
81865;BME280;71313;43.514;1.500;2023-12-22T05:50:37;100892.66;;;14.55;69.99
81865;BME280;71313;43.514;1.500;2023-12-22T05:53:03;100893.50;;;14.55;69.99
81865;BME280;71313;43.514;1.500;2023-12-22T05:55:29;100902.59;;;14.54;69.88
81865;BME280;71313;43.514;1.500;2023-12-22T05:57:54;100903.44;;;14.55;70.14
81865;BME280;71313;43.514;1.500;2023-12-22T06:00:20;100907.88;;;14.56;69.47
81865;BME280;71313;43.514;1.500;2023-12-22T06:02:46;100915.13;;;14.55;68.88
81865;BME280;71313;43.514;1.500;2023-12-22T06:05:11;100912.53;;;14.54;69.23
81865;BME280;71313;43.514;1.500;2023-12-22T06:07:37;100906.25;;;14.53;69.32
81865;BME280;71313;43.514;1.500;2023-12-22T06:10:02;100922.34;;;14.55;69.92
81865;BME280;71313;43.514;1.500;2023-12-22T06:12:27;100926.88;;;14.54;68.98
81865;BME280;71313;43.514;1.500;2023-12-22T06:14:53;100928.72;;;14.54;69.42
81865;BME280;71313;43.514;1.500;2023-12-22T06:17:18;100923.31;;;14.54;69.83
81865;BME280;71313;43.514;1.500;2023-12-22T06:19:44;100922.47;;;14.53;69.51
81865;BME280;71313;43.514;1.500;2023-12-22T06:22:09;100928.81;;;14.52;69.47
81865;BME280;71313;43.514;1.500;2023-12-22T06:24:35;100923.31;;;14.54;70.19
81865;BME280;71313;43.514;1.500;2023-12-22T06:27:01;100924.19;;;14.54;69.49
81865;BME280;71313;43.514;1.500;2023-12-22T06:29:26;100920.50;;;14.55;69.66
81865;BME280;71313;43.514;1.500;2023-12-22T06:31:52;100920.50;;;14.55;70.13
81865;BME280;71313;43.514;1.500;2023-12-22T06:34:18;100921.50;;;14.54;69.50
81865;BME280;71313;43.514;1.500;2023-12-22T06:36:44;100920.50;;;14.55;69.64
81865;BME280;71313;43.514;1.500;2023-12-22T06:39:09;100919.75;;;14.53;69.24
81865;BME280;71313;43.514;1.500;2023-12-22T06:41:34;100916.09;;;14.54;69.22
81865;BME280;71313;43.514;1.500;2023-12-22T06:44:00;100905.38;;;14.53;69.54
81865;BME280;71313;43.514;1.500;2023-12-22T06:46:26;100909.72;;;14.55;69.33
81865;BME280;71313;43.514;1.500;2023-12-22T06:48:53;100912.41;;;14.55;70.02
81865;BME280;71313;43.514;1.500;2023-12-22T06:51:26;100917.06;;;14.53;69.99
81865;BME280;71313;43.514;1.500;2023-12-22T06:53:53;100922.25;;;14.56;69.86
81865;BME280;71313;43.514;1.500;2023-12-22T06:56:21;100915.97;;;14.56;69.15
81865;BME280;71313;43.514;1.500;2023-12-22T06:58:51;100918.69;;;14.56;70.00
81865;BME280;71313;43.514;1.500;2023-12-22T07:01:20;100916.84;;;14.56;69.32
81865;BME280;71313;43.514;1.500;2023-12-22T07:03:47;100918.78;;;14.54;69.44
81865;BME280;71313;43.514;1.500;2023-12-22T07:06:14;100919.53;;;14.56;69.98
81865;BME280;71313;43.514;1.500;2023-12-22T07:08:40;100935.00;;;14.54;69.28
81865;BME280;71313;43.514;1.500;2023-12-22T07:11:05;100925.06;;;14.55;69.66
81865;BME280;71313;43.514;1.500;2023-12-22T07:13:30;100931.31;;;14.55;70.15
81865;BME280;71313;43.514;1.500;2023-12-22T07:15:56;100923.22;;;14.55;69.36
81865;BME280;71313;43.514;1.500;2023-12-22T07:18:21;100925.06;;;14.55;70.25
81865;BME280;71313;43.514;1.500;2023-12-22T07:20:49;100920.50;;;14.55;70.62
81865;BME280;71313;43.514;1.500;2023-12-22T07:23:15;100933.06;;;14.56;70.28
81865;BME280;71313;43.514;1.500;2023-12-22T07:25:40;100927.66;;;14.56;69.53
81865;BME280;71313;43.514;1.500;2023-12-22T07:28:06;100930.25;;;14.58;70.33
81865;BME280;71313;43.514;1.500;2023-12-22T07:30:34;100935.00;;;14.54;70.31
81865;BME280;71313;43.514;1.500;2023-12-22T07:32:59;100947.31;;;14.58;70.29
81865;BME280;71313;43.514;1.500;2023-12-22T07:35:24;100937.59;;;14.56;69.82
81865;BME280;71313;43.514;1.500;2023-12-22T07:37:50;100942.09;;;14.43;70.58
81865;BME280;71313;43.514;1.500;2023-12-22T07:40:17;100953.69;;;14.30;70.91
81865;BME280;71313;43.514;1.500;2023-12-22T07:42:42;100959.34;;;14.40;70.78
81865;BME280;71313;43.514;1.500;2023-12-22T07:45:11;100955.38;;;14.46;70.20
81865;BME280;71313;43.514;1.500;2023-12-22T07:47:36;100950.75;;;14.48;70.56
81865;BME280;71313;43.514;1.500;2023-12-22T07:50:04;100959.41;;;14.53;69.87
81865;BME280;71313;43.514;1.500;2023-12-22T07:52:31;100957.34;;;14.56;69.93
81865;BME280;71313;43.514;1.500;2023-12-22T07:54:56;100970.22;;;14.66;70.65
81865;BME280;71313;43.514;1.500;2023-12-22T07:57:22;100970.03;;;14.69;70.28
81865;BME280;71313;43.514;1.500;2023-12-22T07:59:47;100969.91;;;14.70;70.56
81865;BME280;71313;43.514;1.500;2023-12-22T08:02:13;100964.41;;;14.72;69.50
81865;BME280;71313;43.514;1.500;2023-12-22T08:04:38;100964.00;;;14.78;70.16
81865;BME280;71313;43.514;1.500;2023-12-22T08:07:05;100971.13;;;14.79;69.37
81865;BME280;71313;43.514;1.500;2023-12-22T08:09:30;100975.13;;;14.86;68.71
81865;BME280;71313;43.514;1.500;2023-12-22T08:11:56;100984.53;;;14.93;68.99
81865;BME280;71313;43.514;1.500;2023-12-22T08:14:22;100979.34;;;14.90;68.65
81865;BME280;71313;43.514;1.500;2023-12-22T08:16:47;100989.75;;;14.96;68.79
81865;BME280;71313;43.514;1.500;2023-12-22T08:19:13;100991.47;;;14.97;69.59
81865;BME280;71313;43.514;1.500;2023-12-22T08:21:38;100998.59;;;14.98;69.55
81865;BME280;71313;43.514;1.500;2023-12-22T08:24:05;101003.78;;;15.01;68.62
81865;BME280;71313;43.514;1.500;2023-12-22T08:26:30;100996.44;;;15.03;68.55
81865;BME280;71313;43.514;1.500;2023-12-22T08:28:56;101004.25;;;15.08;69.33
81865;BME280;71313;43.514;1.500;2023-12-22T08:31:21;100996.88;;;15.10;69.59
81865;BME280;71313;43.514;1.500;2023-12-22T08:33:47;101010.28;;;15.11;69.35
81865;BME280;71313;43.514;1.500;2023-12-22T08:36:12;100998.59;;;14.98;68.85
81865;BME280;71313;43.514;1.500;2023-12-22T08:38:39;101006.72;;;14.32;71.57
81865;BME280;71313;43.514;1.500;2023-12-22T08:41:07;101014.88;;;14.03;72.84
81865;BME280;71313;43.514;1.500;2023-12-22T08:43:32;101010.03;;;13.53;74.24
81865;BME280;71313;43.514;1.500;2023-12-22T08:45:58;101008.31;;;13.52;74.08
81865;BME280;71313;43.514;1.500;2023-12-22T08:48:24;101016.75;;;13.31;75.69
81865;BME280;71313;43.514;1.500;2023-12-22T08:50:49;101021.75;;;13.23;75.65
81865;BME280;71313;43.514;1.500;2023-12-22T08:53:15;101018.06;;;13.10;77.18
81865;BME280;71313;43.514;1.500;2023-12-22T08:55:40;101021.31;;;12.87;77.40
81865;BME280;71313;43.514;1.500;2023-12-22T08:58:06;101026.22;;;13.09;76.76
81865;BME280;71313;43.514;1.500;2023-12-22T09:00:31;101020.16;;;13.05;77.37
81865;BME280;71313;43.514;1.500;2023-12-22T09:02:56;101035.25;;;13.23;77.44
81865;BME280;71313;43.514;1.500;2023-12-22T09:05:22;101037.97;;;13.08;77.42
81865;BME280;71313;43.514;1.500;2023-12-22T09:07:47;101034.66;;;13.32;76.53
81865;BME280;71313;43.514;1.500;2023-12-22T09:10:13;101044.59;;;13.60;75.58
81865;BME280;71313;43.514;1.500;2023-12-22T09:12:38;101039.00;;;13.78;74.11
81865;BME280;71313;43.514;1.500;2023-12-22T09:15:05;101045.47;;;13.89;74.47
81865;BME280;71313;43.514;1.500;2023-12-22T09:17:30;101044.00;;;13.98;74.03
81865;BME280;71313;43.514;1.500;2023-12-22T09:19:56;101040.91;;;14.04;73.92
81865;BME280;71313;43.514;1.500;2023-12-22T09:22:22;101040.41;;;14.12;72.48
81865;BME280;71313;43.514;1.500;2023-12-22T09:24:47;101046.78;;;14.11;73.08
81865;BME280;71313;43.514;1.500;2023-12-22T09:27:13;101043.22;;;14.10;73.11
81865;BME280;71313;43.514;1.500;2023-12-22T09:29:39;101033.28;;;14.11;73.63
81865;BME280;71313;43.514;1.500;2023-12-22T09:32:04;101026.06;;;14.11;72.55
81865;BME280;71313;43.514;1.500;2023-12-22T09:34:30;101034.81;;;14.15;73.44
81865;BME280;71313;43.514;1.500;2023-12-22T09:36:56;101036.34;;;14.19;72.82
81865;BME280;71313;43.514;1.500;2023-12-22T09:39:21;101042.31;;;14.24;73.72
81865;BME280;71313;43.514;1.500;2023-12-22T09:41:50;101039.63;;;14.24;72.65
81865;BME280;71313;43.514;1.500;2023-12-22T09:44:20;101041.69;;;14.33;72.92
81865;BME280;71313;43.514;1.500;2023-12-22T09:46:49;101046.25;;;14.33;73.01
81865;BME280;71313;43.514;1.500;2023-12-22T09:49:18;101051.75;;;14.31;73.36
81865;BME280;71313;43.514;1.500;2023-12-22T09:51:45;101041.13;;;14.28;72.80
81865;BME280;71313;43.514;1.500;2023-12-22T09:54:12;101055.41;;;14.30;73.12
81865;BME280;71313;43.514;1.500;2023-12-22T09:56:39;101056.84;;;14.36;73.08
81865;BME280;71313;43.514;1.500;2023-12-22T09:59:13;101048.38;;;14.42;72.25
81865;BME280;71313;43.514;1.500;2023-12-22T10:01:43;101051.13;;;14.40;72.34
81865;BME280;71313;43.514;1.500;2023-12-22T10:04:13;101065.59;;;14.39;72.74
81865;BME280;71313;43.514;1.500;2023-12-22T10:06:41;101066.00;;;14.33;73.29
81865;BME280;71313;43.514;1.500;2023-12-22T10:09:07;101076.34;;;14.26;72.71
81865;BME280;71313;43.514;1.500;2023-12-22T10:11:35;101077.78;;;14.32;73.19
81865;BME280;71313;43.514;1.500;2023-12-22T10:14:02;101074.88;;;14.35;73.51
81865;BME280;71313;43.514;1.500;2023-12-22T10:16:28;101070.53;;;14.33;73.39
81865;BME280;71313;43.514;1.500;2023-12-22T10:18:53;101077.41;;;14.24;74.20
81865;BME280;71313;43.514;1.500;2023-12-22T10:21:19;101077.78;;;14.18;73.75
81865;BME280;71313;43.514;1.500;2023-12-22T10:23:44;101078.00;;;14.15;73.60
81865;BME280;71313;43.514;1.500;2023-12-22T10:26:13;101078.66;;;14.18;74.48
81865;BME280;71313;43.514;1.500;2023-12-22T10:28:38;101071.25;;;14.08;73.94
81865;BME280;71313;43.514;1.500;2023-12-22T10:31:05;101062.19;;;14.09;74.79
81865;BME280;71313;43.514;1.500;2023-12-22T10:33:32;101050.44;;;14.10;74.15
81865;BME280;71313;43.514;1.500;2023-12-22T10:35:59;101056.22;;;14.18;74.25
81865;BME280;71313;43.514;1.500;2023-12-22T10:38:26;101074.91;;;14.21;73.80
81865;BME280;71313;43.514;1.500;2023-12-22T10:40:52;101068.34;;;14.25;73.25
81865;BME280;71313;43.514;1.500;2023-12-22T10:43:17;101069.34;;;13.95;74.62
81865;BME280;71313;43.514;1.500;2023-12-22T10:45:45;101063.19;;;13.65;76.27
81865;BME280;71313;43.514;1.500;2023-12-22T10:48:10;101062.88;;;13.98;75.77
81865;BME280;71313;43.514;1.500;2023-12-22T10:50:39;101066.34;;;14.14;75.01
81865;BME280;71313;43.514;1.500;2023-12-22T10:53:05;101053.50;;;14.18;73.83
81865;BME280;71313;43.514;1.500;2023-12-22T10:55:31;101058.59;;;14.22;74.03
81865;BME280;71313;43.514;1.500;2023-12-22T10:57:56;101054.84;;;14.25;74.26
81865;BME280;71313;43.514;1.500;2023-12-22T11:00:26;101049.81;;;14.33;73.66
81865;BME280;71313;43.514;1.500;2023-12-22T11:02:58;101051.28;;;14.24;74.62
81865;BME280;71313;43.514;1.500;2023-12-22T11:05:27;101049.03;;;14.31;74.11
81865;BME280;71313;43.514;1.500;2023-12-22T11:07:57;101034.88;;;14.27;73.97
81865;BME280;71313;43.514;1.500;2023-12-22T11:10:27;101040.94;;;14.31;74.39
81865;BME280;71313;43.514;1.500;2023-12-22T11:12:53;101047.31;;;14.30;73.94
81865;BME280;71313;43.514;1.500;2023-12-22T11:15:20;101040.75;;;14.34;74.29
81865;BME280;71313;43.514;1.500;2023-12-22T11:17:46;101032.44;;;14.37;73.88
81865;BME280;71313;43.514;1.500;2023-12-22T11:20:14;101033.19;;;14.39;73.76
81865;BME280;71313;43.514;1.500;2023-12-22T11:22:42;101031.38;;;14.40;73.66
81865;BME280;71313;43.514;1.500;2023-12-22T11:25:08;101034.94;;;14.40;73.82
81865;BME280;71313;43.514;1.500;2023-12-22T11:27:35;101022.50;;;14.38;73.61
81865;BME280;71313;43.514;1.500;2023-12-22T11:30:01;101020.00;;;14.35;74.50
81865;BME280;71313;43.514;1.500;2023-12-22T11:32:28;101026.06;;;14.38;74.59
81865;BME280;71313;43.514;1.500;2023-12-22T11:34:54;101016.03;;;14.40;74.50
81865;BME280;71313;43.514;1.500;2023-12-22T11:37:22;101007.88;;;14.42;74.65
81865;BME280;71313;43.514;1.500;2023-12-22T11:39:47;101016.53;;;14.33;74.90
81865;BME280;71313;43.514;1.500;2023-12-22T11:42:25;101023.88;;;14.30;73.79
81865;BME280;71313;43.514;1.500;2023-12-22T11:44:53;101012.97;;;14.32;74.73
81865;BME280;71313;43.514;1.500;2023-12-22T11:47:22;101016.25;;;14.37;74.14
81865;BME280;71313;43.514;1.500;2023-12-22T11:49:48;101017.19;;;14.36;74.10
81865;BME280;71313;43.514;1.500;2023-12-22T11:52:25;101008.34;;;14.34;74.97
81865;BME280;71313;43.514;1.500;2023-12-22T11:54:52;101007.28;;;14.37;74.76
81865;BME280;71313;43.514;1.500;2023-12-22T11:59:57;100999.81;;;14.54;74.51
81865;BME280;71313;43.514;1.500;2023-12-22T12:02:22;100997.88;;;14.56;74.28
81865;BME280;71313;43.514;1.500;2023-12-22T12:04:48;100993.22;;;14.58;74.26
81865;BME280;71313;43.514;1.500;2023-12-22T12:07:39;100996.38;;;14.38;74.93
81865;BME280;71313;43.514;1.500;2023-12-22T12:10:08;100981.78;;;14.41;74.34
81865;BME280;71313;43.514;1.500;2023-12-22T12:12:35;100982.66;;;14.41;73.98
81865;BME280;71313;43.514;1.500;2023-12-22T12:15:17;100982.50;;;14.44;74.22
81865;BME280;71313;43.514;1.500;2023-12-22T12:17:44;100980.34;;;14.49;74.01
81865;BME280;71313;43.514;1.500;2023-12-22T12:20:11;100977.22;;;14.55;73.93
81865;BME280;71313;43.514;1.500;2023-12-22T12:22:37;100973.97;;;14.50;74.02
81865;BME280;71313;43.514;1.500;2023-12-22T12:25:08;100979.78;;;14.44;73.90
81865;BME280;71313;43.514;1.500;2023-12-22T12:27:35;100973.63;;;14.42;73.92
81865;BME280;71313;43.514;1.500;2023-12-22T12:30:12;100969.75;;;14.46;73.42
81865;BME280;71313;43.514;1.500;2023-12-22T12:32:40;100969.75;;;14.46;73.87
81865;BME280;71313;43.514;1.500;2023-12-22T12:35:08;100969.53;;;14.49;74.30
81865;BME280;71313;43.514;1.500;2023-12-22T12:37:33;100966.66;;;14.38;74.95
81865;BME280;71313;43.514;1.500;2023-12-22T12:40:01;100964.19;;;14.35;74.24
81865;BME280;71313;43.514;1.500;2023-12-22T12:42:29;100963.00;;;14.39;73.96
81865;BME280;71313;43.514;1.500;2023-12-22T12:44:56;100965.41;;;14.44;73.88
81865;BME280;71313;43.514;1.500;2023-12-22T12:47:21;100965.41;;;14.44;74.18
81865;BME280;71313;43.514;1.500;2023-12-22T12:49:46;100954.34;;;14.34;74.38
81865;BME280;71313;43.514;1.500;2023-12-22T12:52:14;100957.31;;;14.44;74.00